sensor_id;sensor_type;location;lat;lon;timestamp;P1;durP1;ratioP1;P2;durP2;ratioP2
25163;SDS011;13440;50.860;13.662;2023-02-11T00:02:24;37.03;;;19.70;;
25163;SDS011;13440;50.860;13.662;2023-02-11T00:04:53;32.80;;;19.48;;
25163;SDS011;13440;50.860;13.662;2023-02-11T00:07:18;38.75;;;20.65;;
25163;SDS011;13440;50.860;13.662;2023-02-11T00:09:43;34.03;;;20.30;;
25163;SDS011;13440;50.860;13.662;2023-02-11T00:12:09;38.70;;;19.83;;
25163;SDS011;13440;50.860;13.662;2023-02-11T00:14:34;38.85;;;20.52;;
25163;SDS011;13440;50.860;13.662;2023-02-11T00:16:59;37.10;;;20.07;;
25163;SDS011;13440;50.860;13.662;2023-02-11T00:19:24;35.17;;;19.40;;
25163;SDS011;13440;50.860;13.662;2023-02-11T00:21:49;35.20;;;19.95;;
25163;SDS011;13440;50.860;13.662;2023-02-11T00:24:15;34.83;;;19.70;;
25163;SDS011;13440;50.860;13.662;2023-02-11T00:26:40;33.63;;;19.03;;
25163;SDS011;13440;50.860;13.662;2023-02-11T00:29:05;33.33;;;19.55;;
25163;SDS011;13440;50.860;13.662;2023-02-11T00:31:31;35.95;;;19.77;;
25163;SDS011;13440;50.860;13.662;2023-02-11T00:33:56;36.40;;;20.02;;
25163;SDS011;13440;50.860;13.662;2023-02-11T00:36:23;34.40;;;19.30;;
25163;SDS011;13440;50.860;13.662;2023-02-11T00:38:48;30.13;;;17.80;;
25163;SDS011;13440;50.860;13.662;2023-02-11T00:41:14;35.38;;;20.67;;
25163;SDS011;13440;50.860;13.662;2023-02-11T00:43:40;34.85;;;19.60;;
25163;SDS011;13440;50.860;13.662;2023-02-11T00:46:06;34.95;;;20.02;;
25163;SDS011;13440;50.860;13.662;2023-02-11T00:48:31;32.83;;;19.20;;
25163;SDS011;13440;50.860;13.662;2023-02-11T00:50:59;37.13;;;20.17;;
25163;SDS011;13440;50.860;13.662;2023-02-11T00:53:24;37.05;;;20.38;;
25163;SDS011;13440;50.860;13.662;2023-02-11T00:55:49;37.97;;;20.40;;
25163;SDS011;13440;50.860;13.662;2023-02-11T00:58:14;35.72;;;20.23;;
25163;SDS011;13440;50.860;13.662;2023-02-11T01:00:40;36.65;;;21.05;;
25163;SDS011;13440;50.860;13.662;2023-02-11T01:03:06;32.90;;;19.23;;
25163;SDS011;13440;50.860;13.662;2023-02-11T01:05:31;35.25;;;21.23;;
25163;SDS011;13440;50.860;13.662;2023-02-11T01:07:57;34.47;;;20.48;;
25163;SDS011;13440;50.860;13.662;2023-02-11T01:10:22;34.15;;;21.35;;
25163;SDS011;13440;50.860;13.662;2023-02-11T01:12:47;36.95;;;21.02;;
25163;SDS011;13440;50.860;13.662;2023-02-11T01:15:14;35.13;;;19.73;;
25163;SDS011;13440;50.860;13.662;2023-02-11T01:17:39;37.20;;;21.45;;
25163;SDS011;13440;50.860;13.662;2023-02-11T01:20:05;36.70;;;20.70;;
25163;SDS011;13440;50.860;13.662;2023-02-11T01:22:31;33.92;;;20.63;;
25163;SDS011;13440;50.860;13.662;2023-02-11T01:24:58;37.72;;;21.67;;
25163;SDS011;13440;50.860;13.662;2023-02-11T01:27:23;36.75;;;20.48;;
25163;SDS011;13440;50.860;13.662;2023-02-11T01:29:48;35.97;;;20.97;;
25163;SDS011;13440;50.860;13.662;2023-02-11T01:32:13;35.80;;;22.17;;
25163;SDS011;13440;50.860;13.662;2023-02-11T01:34:39;34.83;;;21.13;;
25163;SDS011;13440;50.860;13.662;2023-02-11T01:37:04;35.63;;;21.90;;
25163;SDS011;13440;50.860;13.662;2023-02-11T01:39:31;36.03;;;21.50;;
25163;SDS011;13440;50.860;13.662;2023-02-11T01:41:57;36.28;;;20.92;;
25163;SDS011;13440;50.860;13.662;2023-02-11T01:44:27;33.30;;;20.33;;
25163;SDS011;13440;50.860;13.662;2023-02-11T01:46:52;35.45;;;21.38;;
25163;SDS011;13440;50.860;13.662;2023-02-11T01:49:20;33.72;;;21.30;;
25163;SDS011;13440;50.860;13.662;2023-02-11T01:51:55;39.15;;;22.08;;
25163;SDS011;13440;50.860;13.662;2023-02-11T01:54:23;36.47;;;22.38;;
25163;SDS011;13440;50.860;13.662;2023-02-11T01:57:09;35.25;;;21.42;;
25163;SDS011;13440;50.860;13.662;2023-02-11T02:00:07;37.60;;;21.88;;
25163;SDS011;13440;50.860;13.662;2023-02-11T02:08:10;35.70;;;21.50;;
25163;SDS011;13440;50.860;13.662;2023-02-11T02:10:39;36.05;;;21.98;;
25163;SDS011;13440;50.860;13.662;2023-02-11T02:13:05;37.75;;;22.10;;
25163;SDS011;13440;50.860;13.662;2023-02-11T02:15:31;34.28;;;21.35;;
25163;SDS011;13440;50.860;13.662;2023-02-11T02:17:58;36.40;;;21.05;;
25163;SDS011;13440;50.860;13.662;2023-02-11T02:20:42;36.10;;;21.02;;
25163;SDS011;13440;50.860;13.662;2023-02-11T02:23:25;33.97;;;20.15;;
25163;SDS011;13440;50.860;13.662;2023-02-11T02:28:39;32.92;;;21.10;;
25163;SDS011;13440;50.860;13.662;2023-02-11T02:31:20;35.58;;;21.55;;
25163;SDS011;13440;50.860;13.662;2023-02-11T02:33:51;36.83;;;21.23;;
25163;SDS011;13440;50.860;13.662;2023-02-11T02:36:22;32.70;;;20.25;;
25163;SDS011;13440;50.860;13.662;2023-02-11T02:41:14;32.57;;;20.07;;
25163;SDS011;13440;50.860;13.662;2023-02-11T02:43:41;31.85;;;18.92;;
25163;SDS011;13440;50.860;13.662;2023-02-11T02:48:35;29.98;;;19.98;;
25163;SDS011;13440;50.860;13.662;2023-02-11T02:56:25;36.17;;;20.33;;
25163;SDS011;13440;50.860;13.662;2023-02-11T02:59:00;30.90;;;19.55;;
25163;SDS011;13440;50.860;13.662;2023-02-11T03:01:34;31.55;;;19.25;;
25163;SDS011;13440;50.860;13.662;2023-02-11T03:04:11;32.15;;;20.02;;
25163;SDS011;13440;50.860;13.662;2023-02-11T03:07:02;30.92;;;19.55;;
25163;SDS011;13440;50.860;13.662;2023-02-11T03:10:02;29.35;;;18.95;;
25163;SDS011;13440;50.860;13.662;2023-02-11T03:12:19;30.05;;;19.10;;
25163;SDS011;13440;50.860;13.662;2023-02-11T03:14:45;31.75;;;20.58;;
25163;SDS011;13440;50.860;13.662;2023-02-11T03:17:12;32.83;;;19.98;;
25163;SDS011;13440;50.860;13.662;2023-02-11T03:19:41;33.38;;;19.70;;
25163;SDS011;13440;50.860;13.662;2023-02-11T03:22:10;33.47;;;20.42;;
25163;SDS011;13440;50.860;13.662;2023-02-11T03:24:37;33.20;;;20.75;;
25163;SDS011;13440;50.860;13.662;2023-02-11T03:29:49;32.92;;;19.42;;
25163;SDS011;13440;50.860;13.662;2023-02-11T03:32:17;31.75;;;20.30;;
25163;SDS011;13440;50.860;13.662;2023-02-11T03:37:44;34.33;;;20.65;;
25163;SDS011;13440;50.860;13.662;2023-02-11T03:40:20;34.50;;;20.70;;
25163;SDS011;13440;50.860;13.662;2023-02-11T03:42:53;33.03;;;20.88;;
25163;SDS011;13440;50.860;13.662;2023-02-11T03:45:21;35.60;;;21.25;;
25163;SDS011;13440;50.860;13.662;2023-02-11T03:47:59;35.03;;;20.30;;
25163;SDS011;13440;50.860;13.662;2023-02-11T03:50:24;36.33;;;21.27;;
25163;SDS011;13440;50.860;13.662;2023-02-11T03:52:50;33.22;;;20.08;;
25163;SDS011;13440;50.860;13.662;2023-02-11T03:55:16;34.40;;;21.13;;
25163;SDS011;13440;50.860;13.662;2023-02-11T03:57:42;33.47;;;21.13;;
25163;SDS011;13440;50.860;13.662;2023-02-11T04:00:08;36.58;;;20.88;;
25163;SDS011;13440;50.860;13.662;2023-02-11T04:02:40;36.55;;;21.95;;
25163;SDS011;13440;50.860;13.662;2023-02-11T04:05:05;36.88;;;21.83;;
25163;SDS011;13440;50.860;13.662;2023-02-11T04:07:31;37.15;;;22.50;;
25163;SDS011;13440;50.860;13.662;2023-02-11T04:09:56;37.33;;;22.65;;
25163;SDS011;13440;50.860;13.662;2023-02-11T04:12:22;35.65;;;22.13;;
25163;SDS011;13440;50.860;13.662;2023-02-11T04:14:47;37.90;;;22.05;;
25163;SDS011;13440;50.860;13.662;2023-02-11T04:17:12;35.73;;;21.40;;
25163;SDS011;13440;50.860;13.662;2023-02-11T04:19:37;34.83;;;21.20;;
25163;SDS011;13440;50.860;13.662;2023-02-11T04:22:03;31.73;;;20.63;;
25163;SDS011;13440;50.860;13.662;2023-02-11T04:24:28;36.05;;;20.58;;
25163;SDS011;13440;50.860;13.662;2023-02-11T04:26:53;33.67;;;20.70;;
25163;SDS011;13440;50.860;13.662;2023-02-11T04:29:18;37.47;;;21.97;;
25163;SDS011;13440;50.860;13.662;2023-02-11T04:31:44;37.30;;;21.98;;
25163;SDS011;13440;50.860;13.662;2023-02-11T04:34:09;34.67;;;21.17;;
25163;SDS011;13440;50.860;13.662;2023-02-11T04:36:34;35.50;;;21.43;;
25163;SDS011;13440;50.860;13.662;2023-02-11T04:38:59;37.03;;;20.77;;
25163;SDS011;13440;50.860;13.662;2023-02-11T04:41:24;36.13;;;21.13;;
25163;SDS011;13440;50.860;13.662;2023-02-11T04:43:50;33.13;;;21.53;;
25163;SDS011;13440;50.860;13.662;2023-02-11T04:46:15;30.87;;;19.67;;
25163;SDS011;13440;50.860;13.662;2023-02-11T04:48:40;34.37;;;20.33;;
25163;SDS011;13440;50.860;13.662;2023-02-11T04:51:05;33.73;;;19.93;;
25163;SDS011;13440;50.860;13.662;2023-02-11T04:53:30;34.23;;;20.70;;
25163;SDS011;13440;50.860;13.662;2023-02-11T04:55:56;31.60;;;19.50;;
25163;SDS011;13440;50.860;13.662;2023-02-11T04:58:21;30.80;;;19.40;;
25163;SDS011;13440;50.860;13.662;2023-02-11T05:00:46;34.13;;;19.23;;
25163;SDS011;13440;50.860;13.662;2023-02-11T05:03:13;30.87;;;19.47;;
25163;SDS011;13440;50.860;13.662;2023-02-11T05:05:39;34.78;;;20.33;;
25163;SDS011;13440;50.860;13.662;2023-02-11T05:08:04;35.03;;;20.15;;
25163;SDS011;13440;50.860;13.662;2023-02-11T05:10:30;34.88;;;21.40;;
25163;SDS011;13440;50.860;13.662;2023-02-11T05:12:55;33.90;;;20.60;;
25163;SDS011;13440;50.860;13.662;2023-02-11T05:15:20;34.90;;;21.37;;
25163;SDS011;13440;50.860;13.662;2023-02-11T05:17:45;37.97;;;22.33;;
25163;SDS011;13440;50.860;13.662;2023-02-11T05:20:10;33.53;;;21.57;;
25163;SDS011;13440;50.860;13.662;2023-02-11T05:22:36;38.85;;;23.02;;
25163;SDS011;13440;50.860;13.662;2023-02-11T05:25:01;42.77;;;24.47;;
25163;SDS011;13440;50.860;13.662;2023-02-11T05:27:26;44.27;;;25.00;;
25163;SDS011;13440;50.860;13.662;2023-02-11T05:29:51;41.87;;;24.60;;
25163;SDS011;13440;50.860;13.662;2023-02-11T05:32:17;45.70;;;26.60;;
25163;SDS011;13440;50.860;13.662;2023-02-11T05:34:42;44.27;;;26.90;;
25163;SDS011;13440;50.860;13.662;2023-02-11T05:37:07;48.17;;;27.77;;
25163;SDS011;13440;50.860;13.662;2023-02-11T05:39:32;52.92;;;28.48;;
25163;SDS011;13440;50.860;13.662;2023-02-11T05:41:57;50.55;;;28.77;;
25163;SDS011;13440;50.860;13.662;2023-02-11T05:44:23;53.10;;;29.17;;
25163;SDS011;13440;50.860;13.662;2023-02-11T05:46:48;54.45;;;30.48;;
25163;SDS011;13440;50.860;13.662;2023-02-11T05:49:14;51.35;;;29.42;;
25163;SDS011;13440;50.860;13.662;2023-02-11T05:51:40;59.85;;;31.02;;
25163;SDS011;13440;50.860;13.662;2023-02-11T05:54:05;66.50;;;31.97;;
25163;SDS011;13440;50.860;13.662;2023-02-11T05:56:30;59.27;;;32.33;;
25163;SDS011;13440;50.860;13.662;2023-02-11T05:58:57;54.65;;;31.13;;
25163;SDS011;13440;50.860;13.662;2023-02-11T06:01:22;53.03;;;30.25;;
25163;SDS011;13440;50.860;13.662;2023-02-11T06:03:47;52.07;;;31.13;;
25163;SDS011;13440;50.860;13.662;2023-02-11T06:06:15;61.85;;;33.13;;
25163;SDS011;13440;50.860;13.662;2023-02-11T06:08:40;50.70;;;31.27;;
25163;SDS011;13440;50.860;13.662;2023-02-11T06:11:05;59.80;;;31.97;;
25163;SDS011;13440;50.860;13.662;2023-02-11T06:13:30;61.77;;;33.37;;
25163;SDS011;13440;50.860;13.662;2023-02-11T06:15:56;61.63;;;31.88;;
25163;SDS011;13440;50.860;13.662;2023-02-11T06:18:22;60.72;;;32.20;;
25163;SDS011;13440;50.860;13.662;2023-02-11T06:20:47;61.50;;;32.90;;
25163;SDS011;13440;50.860;13.662;2023-02-11T06:23:12;71.13;;;34.40;;
25163;SDS011;13440;50.860;13.662;2023-02-11T06:25:37;58.58;;;33.42;;
25163;SDS011;13440;50.860;13.662;2023-02-11T06:28:03;58.90;;;31.37;;
25163;SDS011;13440;50.860;13.662;2023-02-11T06:30:28;59.15;;;33.42;;
25163;SDS011;13440;50.860;13.662;2023-02-11T06:32:53;55.47;;;32.95;;
25163;SDS011;13440;50.860;13.662;2023-02-11T06:35:18;56.05;;;31.20;;
25163;SDS011;13440;50.860;13.662;2023-02-11T06:37:44;56.20;;;31.63;;
25163;SDS011;13440;50.860;13.662;2023-02-11T06:40:09;58.03;;;32.90;;
25163;SDS011;13440;50.860;13.662;2023-02-11T06:42:34;58.78;;;32.38;;
25163;SDS011;13440;50.860;13.662;2023-02-11T06:45:02;59.03;;;32.63;;
25163;SDS011;13440;50.860;13.662;2023-02-11T06:47:29;54.80;;;32.25;;
25163;SDS011;13440;50.860;13.662;2023-02-11T06:49:55;61.33;;;32.97;;
25163;SDS011;13440;50.860;13.662;2023-02-11T06:52:20;62.83;;;33.27;;
25163;SDS011;13440;50.860;13.662;2023-02-11T06:54:45;63.50;;;34.27;;
25163;SDS011;13440;50.860;13.662;2023-02-11T06:57:10;60.77;;;32.27;;
25163;SDS011;13440;50.860;13.662;2023-02-11T06:59:35;64.63;;;34.65;;
25163;SDS011;13440;50.860;13.662;2023-02-11T07:02:01;64.77;;;34.73;;
25163;SDS011;13440;50.860;13.662;2023-02-11T07:04:26;63.75;;;34.45;;
25163;SDS011;13440;50.860;13.662;2023-02-11T07:06:51;64.97;;;33.83;;
25163;SDS011;13440;50.860;13.662;2023-02-11T07:09:16;60.17;;;33.27;;
25163;SDS011;13440;50.860;13.662;2023-02-11T07:11:42;66.20;;;35.97;;
25163;SDS011;13440;50.860;13.662;2023-02-11T07:14:07;65.83;;;34.37;;
25163;SDS011;13440;50.860;13.662;2023-02-11T07:16:32;74.03;;;38.40;;
25163;SDS011;13440;50.860;13.662;2023-02-11T07:18:58;67.07;;;34.03;;
25163;SDS011;13440;50.860;13.662;2023-02-11T07:21:23;58.92;;;33.72;;
25163;SDS011;13440;50.860;13.662;2023-02-11T07:23:49;64.17;;;34.47;;
25163;SDS011;13440;50.860;13.662;2023-02-11T07:26:16;63.92;;;33.58;;
25163;SDS011;13440;50.860;13.662;2023-02-11T07:28:41;64.20;;;32.80;;
25163;SDS011;13440;50.860;13.662;2023-02-11T07:31:07;64.93;;;33.60;;
25163;SDS011;13440;50.860;13.662;2023-02-11T07:33:33;59.90;;;33.42;;
25163;SDS011;13440;50.860;13.662;2023-02-11T07:35:59;61.88;;;32.20;;
25163;SDS011;13440;50.860;13.662;2023-02-11T07:38:24;71.35;;;37.25;;
25163;SDS011;13440;50.860;13.662;2023-02-11T07:40:49;59.40;;;33.63;;
25163;SDS011;13440;50.860;13.662;2023-02-11T07:43:14;65.80;;;33.87;;
25163;SDS011;13440;50.860;13.662;2023-02-11T07:45:39;65.50;;;35.00;;
25163;SDS011;13440;50.860;13.662;2023-02-11T07:48:05;59.83;;;33.17;;
25163;SDS011;13440;50.860;13.662;2023-02-11T07:50:30;63.33;;;35.55;;
25163;SDS011;13440;50.860;13.662;2023-02-11T07:52:55;65.57;;;36.03;;
25163;SDS011;13440;50.860;13.662;2023-02-11T07:55:20;62.47;;;34.67;;
25163;SDS011;13440;50.860;13.662;2023-02-11T07:57:46;61.75;;;33.67;;
25163;SDS011;13440;50.860;13.662;2023-02-11T08:00:11;63.10;;;33.73;;
25163;SDS011;13440;50.860;13.662;2023-02-11T08:02:36;61.45;;;34.28;;
25163;SDS011;13440;50.860;13.662;2023-02-11T08:05:02;58.28;;;34.15;;
25163;SDS011;13440;50.860;13.662;2023-02-11T08:07:27;59.72;;;33.30;;
25163;SDS011;13440;50.860;13.662;2023-02-11T08:09:53;58.10;;;33.58;;
25163;SDS011;13440;50.860;13.662;2023-02-11T08:12:19;61.30;;;34.13;;
25163;SDS011;13440;50.860;13.662;2023-02-11T08:14:44;61.97;;;34.17;;
25163;SDS011;13440;50.860;13.662;2023-02-11T08:17:09;56.87;;;32.03;;
25163;SDS011;13440;50.860;13.662;2023-02-11T08:19:35;62.07;;;34.47;;
25163;SDS011;13440;50.860;13.662;2023-02-11T08:22:01;56.72;;;32.50;;
25163;SDS011;13440;50.860;13.662;2023-02-11T08:24:26;58.25;;;32.60;;
25163;SDS011;13440;50.860;13.662;2023-02-11T08:26:51;55.97;;;33.10;;
25163;SDS011;13440;50.860;13.662;2023-02-11T08:29:16;56.27;;;33.47;;
25163;SDS011;13440;50.860;13.662;2023-02-11T08:31:43;53.47;;;31.83;;
25163;SDS011;13440;50.860;13.662;2023-02-11T08:34:09;55.42;;;31.83;;
25163;SDS011;13440;50.860;13.662;2023-02-11T08:36:36;57.33;;;32.40;;
25163;SDS011;13440;50.860;13.662;2023-02-11T08:39:03;54.75;;;33.17;;
25163;SDS011;13440;50.860;13.662;2023-02-11T08:41:29;53.67;;;30.58;;
25163;SDS011;13440;50.860;13.662;2023-02-11T08:43:54;53.33;;;29.92;;
25163;SDS011;13440;50.860;13.662;2023-02-11T08:46:19;52.42;;;30.27;;
25163;SDS011;13440;50.860;13.662;2023-02-11T08:48:45;55.47;;;30.05;;
25163;SDS011;13440;50.860;13.662;2023-02-11T08:51:15;52.50;;;30.02;;
25163;SDS011;13440;50.860;13.662;2023-02-11T08:53:41;50.47;;;29.67;;
25163;SDS011;13440;50.860;13.662;2023-02-11T08:56:07;55.00;;;31.30;;
25163;SDS011;13440;50.860;13.662;2023-02-11T08:58:32;51.80;;;30.35;;
25163;SDS011;13440;50.860;13.662;2023-02-11T09:00:58;52.17;;;31.48;;
25163;SDS011;13440;50.860;13.662;2023-02-11T09:03:23;52.95;;;31.08;;
25163;SDS011;13440;50.860;13.662;2023-02-11T09:05:49;50.28;;;30.23;;
25163;SDS011;13440;50.860;13.662;2023-02-11T09:08:14;52.60;;;30.77;;
25163;SDS011;13440;50.860;13.662;2023-02-11T09:10:40;49.75;;;30.23;;
25163;SDS011;13440;50.860;13.662;2023-02-11T09:13:05;54.58;;;31.05;;
25163;SDS011;13440;50.860;13.662;2023-02-11T09:15:30;52.17;;;31.30;;
25163;SDS011;13440;50.860;13.662;2023-02-11T09:17:56;48.85;;;29.35;;
25163;SDS011;13440;50.860;13.662;2023-02-11T09:20:21;49.00;;;30.33;;
25163;SDS011;13440;50.860;13.662;2023-02-11T09:22:47;49.38;;;29.70;;
25163;SDS011;13440;50.860;13.662;2023-02-11T09:25:12;50.55;;;30.83;;
25163;SDS011;13440;50.860;13.662;2023-02-11T09:27:37;53.20;;;30.20;;
25163;SDS011;13440;50.860;13.662;2023-02-11T09:30:02;53.30;;;30.30;;
25163;SDS011;13440;50.860;13.662;2023-02-11T09:32:28;46.28;;;29.05;;
25163;SDS011;13440;50.860;13.662;2023-02-11T09:34:53;49.13;;;29.47;;
25163;SDS011;13440;50.860;13.662;2023-02-11T09:37:18;46.97;;;29.48;;
25163;SDS011;13440;50.860;13.662;2023-02-11T09:39:43;48.17;;;30.03;;
25163;SDS011;13440;50.860;13.662;2023-02-11T09:42:27;56.95;;;34.17;;
25163;SDS011;13440;50.860;13.662;2023-02-11T09:44:57;57.38;;;35.13;;
25163;SDS011;13440;50.860;13.662;2023-02-11T09:47:26;51.25;;;30.52;;
25163;SDS011;13440;50.860;13.662;2023-02-11T09:49:53;46.75;;;29.50;;
25163;SDS011;13440;50.860;13.662;2023-02-11T09:52:29;52.90;;;31.02;;
25163;SDS011;13440;50.860;13.662;2023-02-11T09:54:55;52.30;;;33.58;;
25163;SDS011;13440;50.860;13.662;2023-02-11T09:57:21;52.70;;;30.45;;
25163;SDS011;13440;50.860;13.662;2023-02-11T09:59:48;52.45;;;30.98;;
25163;SDS011;13440;50.860;13.662;2023-02-11T10:02:19;50.03;;;30.33;;
25163;SDS011;13440;50.860;13.662;2023-02-11T10:07:37;48.15;;;29.13;;
25163;SDS011;13440;50.860;13.662;2023-02-11T10:12:51;48.63;;;28.92;;
25163;SDS011;13440;50.860;13.662;2023-02-11T10:18:49;38.45;;;23.42;;
25163;SDS011;13440;50.860;13.662;2023-02-11T10:21:07;49.38;;;29.23;;
25163;SDS011;13440;50.860;13.662;2023-02-11T10:23:38;49.70;;;30.00;;
25163;SDS011;13440;50.860;13.662;2023-02-11T10:26:12;51.63;;;29.48;;
25163;SDS011;13440;50.860;13.662;2023-02-11T10:28:38;52.28;;;29.85;;
25163;SDS011;13440;50.860;13.662;2023-02-11T10:31:15;52.08;;;30.02;;
25163;SDS011;13440;50.860;13.662;2023-02-11T10:33:46;49.30;;;30.08;;
25163;SDS011;13440;50.860;13.662;2023-02-11T10:36:13;53.42;;;31.40;;
25163;SDS011;13440;50.860;13.662;2023-02-11T10:38:40;54.08;;;30.90;;
25163;SDS011;13440;50.860;13.662;2023-02-11T10:41:05;52.88;;;31.45;;
25163;SDS011;13440;50.860;13.662;2023-02-11T10:43:33;50.42;;;30.38;;
25163;SDS011;13440;50.860;13.662;2023-02-11T10:45:58;51.38;;;30.92;;
25163;SDS011;13440;50.860;13.662;2023-02-11T10:48:43;50.47;;;30.63;;
25163;SDS011;13440;50.860;13.662;2023-02-11T10:53:34;49.47;;;30.27;;
25163;SDS011;13440;50.860;13.662;2023-02-11T10:56:00;47.72;;;30.02;;
25163;SDS011;13440;50.860;13.662;2023-02-11T10:58:27;54.08;;;30.70;;
25163;SDS011;13440;50.860;13.662;2023-02-11T11:00:54;52.13;;;29.90;;
25163;SDS011;13440;50.860;13.662;2023-02-11T11:03:23;49.38;;;31.52;;
25163;SDS011;13440;50.860;13.662;2023-02-11T11:06:03;48.83;;;29.80;;
25163;SDS011;13440;50.860;13.662;2023-02-11T11:08:39;51.35;;;31.88;;
25163;SDS011;13440;50.860;13.662;2023-02-11T11:11:06;55.80;;;31.23;;
25163;SDS011;13440;50.860;13.662;2023-02-11T11:14:07;56.45;;;31.70;;
25163;SDS011;13440;50.860;13.662;2023-02-11T11:16:25;50.55;;;30.58;;
25163;SDS011;13440;50.860;13.662;2023-02-11T11:18:52;53.40;;;31.85;;
25163;SDS011;13440;50.860;13.662;2023-02-11T11:21:22;51.95;;;31.17;;
25163;SDS011;13440;50.860;13.662;2023-02-11T11:23:48;48.47;;;30.85;;
25163;SDS011;13440;50.860;13.662;2023-02-11T11:26:15;47.75;;;30.10;;
25163;SDS011;13440;50.860;13.662;2023-02-11T11:28:55;46.47;;;29.42;;
25163;SDS011;13440;50.860;13.662;2023-02-11T11:31:22;49.67;;;29.70;;
25163;SDS011;13440;50.860;13.662;2023-02-11T11:33:48;49.85;;;30.27;;
25163;SDS011;13440;50.860;13.662;2023-02-11T11:36:37;49.95;;;30.27;;
25163;SDS011;13440;50.860;13.662;2023-02-11T11:39:01;53.40;;;30.00;;
25163;SDS011;13440;50.860;13.662;2023-02-11T11:41:29;49.47;;;29.70;;
25163;SDS011;13440;50.860;13.662;2023-02-11T11:46:22;48.60;;;29.42;;
25163;SDS011;13440;50.860;13.662;2023-02-11T11:48:47;44.47;;;28.77;;
25163;SDS011;13440;50.860;13.662;2023-02-11T11:51:13;82.05;;;41.80;;
25163;SDS011;13440;50.860;13.662;2023-02-11T11:56:17;57.50;;;34.45;;
25163;SDS011;13440;50.860;13.662;2023-02-11T11:58:43;58.17;;;36.13;;
25163;SDS011;13440;50.860;13.662;2023-02-11T12:04:10;50.05;;;28.38;;
25163;SDS011;13440;50.860;13.662;2023-02-11T12:16:56;44.58;;;28.38;;
25163;SDS011;13440;50.860;13.662;2023-02-11T12:21:54;45.75;;;27.67;;
25163;SDS011;13440;50.860;13.662;2023-02-11T12:27:34;45.50;;;28.42;;
25163;SDS011;13440;50.860;13.662;2023-02-11T12:29:54;50.58;;;28.75;;
25163;SDS011;13440;50.860;13.662;2023-02-11T12:32:37;50.25;;;29.95;;
25163;SDS011;13440;50.860;13.662;2023-02-11T12:40:31;50.13;;;29.87;;
25163;SDS011;13440;50.860;13.662;2023-02-11T12:43:17;52.55;;;29.90;;
25163;SDS011;13440;50.860;13.662;2023-02-11T12:48:26;50.88;;;30.20;;
25163;SDS011;13440;50.860;13.662;2023-02-11T12:51:04;50.83;;;30.50;;
25163;SDS011;13440;50.860;13.662;2023-02-11T12:58:41;55.60;;;33.25;;
25163;SDS011;13440;50.860;13.662;2023-02-11T13:01:10;58.80;;;32.97;;
25163;SDS011;13440;50.860;13.662;2023-02-11T13:03:42;57.65;;;33.28;;
25163;SDS011;13440;50.860;13.662;2023-02-11T13:06:13;52.45;;;31.20;;
25163;SDS011;13440;50.860;13.662;2023-02-11T13:08:43;66.43;;;37.33;;
25163;SDS011;13440;50.860;13.662;2023-02-11T13:13:38;52.10;;;30.42;;
25163;SDS011;13440;50.860;13.662;2023-02-11T13:16:18;54.75;;;32.80;;
25163;SDS011;13440;50.860;13.662;2023-02-11T13:18:51;52.00;;;30.65;;
25163;SDS011;13440;50.860;13.662;2023-02-11T13:23:53;58.42;;;31.17;;
25163;SDS011;13440;50.860;13.662;2023-02-11T13:26:28;38.75;;;22.35;;
25163;SDS011;13440;50.860;13.662;2023-02-11T13:31:27;55.08;;;30.80;;
25163;SDS011;13440;50.860;13.662;2023-02-11T13:33:54;57.50;;;32.13;;
25163;SDS011;13440;50.860;13.662;2023-02-11T13:36:23;56.63;;;30.75;;
25163;SDS011;13440;50.860;13.662;2023-02-11T13:38:52;54.15;;;30.92;;
25163;SDS011;13440;50.860;13.662;2023-02-11T13:41:25;54.88;;;31.58;;
25163;SDS011;13440;50.860;13.662;2023-02-11T13:44:03;53.92;;;30.52;;
25163;SDS011;13440;50.860;13.662;2023-02-11T13:46:46;51.13;;;29.92;;
25163;SDS011;13440;50.860;13.662;2023-02-11T13:49:17;57.22;;;31.83;;
25163;SDS011;13440;50.860;13.662;2023-02-11T13:51:43;59.88;;;32.97;;
25163;SDS011;13440;50.860;13.662;2023-02-11T13:54:17;53.13;;;30.97;;
25163;SDS011;13440;50.860;13.662;2023-02-11T13:56:43;55.92;;;31.80;;
25163;SDS011;13440;50.860;13.662;2023-02-11T14:02:08;54.20;;;32.03;;
25163;SDS011;13440;50.860;13.662;2023-02-11T14:08:05;58.70;;;32.15;;
25163;SDS011;13440;50.860;13.662;2023-02-11T14:10:51;58.10;;;32.38;;
25163;SDS011;13440;50.860;13.662;2023-02-11T14:29:15;50.97;;;29.65;;
25163;SDS011;13440;50.860;13.662;2023-02-11T14:36:49;53.90;;;30.23;;
25163;SDS011;13440;50.860;13.662;2023-02-11T14:41:42;54.73;;;31.27;;
25163;SDS011;13440;50.860;13.662;2023-02-11T14:44:18;56.15;;;31.83;;
25163;SDS011;13440;50.860;13.662;2023-02-11T14:46:45;48.33;;;29.33;;
25163;SDS011;13440;50.860;13.662;2023-02-11T14:49:15;50.67;;;30.60;;
25163;SDS011;13440;50.860;13.662;2023-02-11T14:51:42;50.38;;;30.50;;
25163;SDS011;13440;50.860;13.662;2023-02-11T14:54:17;50.05;;;29.10;;
25163;SDS011;13440;50.860;13.662;2023-02-11T14:56:43;47.13;;;28.30;;
25163;SDS011;13440;50.860;13.662;2023-02-11T14:59:20;49.28;;;28.25;;
25163;SDS011;13440;50.860;13.662;2023-02-11T15:01:47;47.53;;;29.23;;
25163;SDS011;13440;50.860;13.662;2023-02-11T15:04:23;49.15;;;28.23;;
25163;SDS011;13440;50.860;13.662;2023-02-11T15:06:49;46.85;;;28.35;;
25163;SDS011;13440;50.860;13.662;2023-02-11T15:09:18;47.95;;;29.02;;
25163;SDS011;13440;50.860;13.662;2023-02-11T15:11:45;48.55;;;28.25;;
25163;SDS011;13440;50.860;13.662;2023-02-11T15:14:27;50.38;;;29.33;;
25163;SDS011;13440;50.860;13.662;2023-02-11T15:16:55;48.63;;;28.50;;
25163;SDS011;13440;50.860;13.662;2023-02-11T15:21:46;49.67;;;30.40;;
25163;SDS011;13440;50.860;13.662;2023-02-11T15:24:29;52.10;;;30.77;;
25163;SDS011;13440;50.860;13.662;2023-02-11T15:26:58;47.08;;;26.95;;
25163;SDS011;13440;50.860;13.662;2023-02-11T15:29:24;50.92;;;29.05;;
25163;SDS011;13440;50.860;13.662;2023-02-11T15:34:30;43.10;;;26.58;;
25163;SDS011;13440;50.860;13.662;2023-02-11T15:36:55;49.53;;;28.63;;
25163;SDS011;13440;50.860;13.662;2023-02-11T15:39:38;45.67;;;26.92;;
25163;SDS011;13440;50.860;13.662;2023-02-11T15:44:49;47.67;;;26.50;;
25163;SDS011;13440;50.860;13.662;2023-02-11T15:47:31;45.75;;;27.80;;
25163;SDS011;13440;50.860;13.662;2023-02-11T15:49:56;45.22;;;27.30;;
25163;SDS011;13440;50.860;13.662;2023-02-11T15:52:23;48.00;;;28.15;;
25163;SDS011;13440;50.860;13.662;2023-02-11T15:54:48;48.08;;;29.48;;
25163;SDS011;13440;50.860;13.662;2023-02-11T15:57:14;45.63;;;28.20;;
25163;SDS011;13440;50.860;13.662;2023-02-11T15:59:45;44.97;;;27.63;;
25163;SDS011;13440;50.860;13.662;2023-02-11T16:02:24;49.00;;;28.42;;
25163;SDS011;13440;50.860;13.662;2023-02-11T16:04:51;49.38;;;29.63;;
25163;SDS011;13440;50.860;13.662;2023-02-11T16:07:36;47.00;;;28.77;;
25163;SDS011;13440;50.860;13.662;2023-02-11T16:10:01;50.50;;;28.08;;
25163;SDS011;13440;50.860;13.662;2023-02-11T16:12:27;47.00;;;28.63;;